sensor_id;sensor_type;location;lat;lon;timestamp;pressure;altitude;pressure_sealevel;temperature;humidity
21664;BME280;10993;52.510;13.456;2023-04-02T00:00:17;56532.44;;;-146.93;74.20
21664;BME280;10993;52.510;13.456;2023-04-02T00:05:37;56419.06;;;-146.93;74.40
21664;BME280;10993;52.510;13.456;2023-04-02T00:10:50;56544.59;;;-146.93;73.35
21664;BME280;10993;52.510;13.456;2023-04-02T00:15:55;56593.19;;;-146.93;73.89
21664;BME280;10993;52.510;13.456;2023-04-02T00:21:05;56581.03;;;-146.93;72.94
21664;BME280;10993;52.510;13.456;2023-04-02T00:26:19;56589.13;;;-146.93;73.02
21664;BME280;10993;52.510;13.456;2023-04-02T00:31:22;56560.78;;;-146.93;72.17
21664;BME280;10993;52.510;13.456;2023-04-02T00:36:24;56552.69;;;-146.93;71.76
21664;BME280;10993;52.510;13.456;2023-04-02T00:41:30;56574.97;;;-146.93;72.12
21664;BME280;10993;52.510;13.456;2023-04-02T00:46:41;56556.75;;;-146.93;72.23
21664;BME280;10993;52.510;13.456;2023-04-02T00:51:49;56601.28;;;-146.93;71.86
21664;BME280;10993;52.510;13.456;2023-04-02T00:56:54;56465.63;;;-146.93;71.24
21664;BME280;10993;52.510;13.456;2023-04-02T01:01:59;56558.75;;;-146.93;70.46
21664;BME280;10993;52.510;13.456;2023-04-02T01:07:23;56384.66;;;-146.93;70.27
21664;BME280;10993;52.510;13.456;2023-04-02T01:12:39;56570.91;;;-146.93;70.44
21664;BME280;10993;52.510;13.456;2023-04-02T01:17:59;56524.34;;;-146.93;69.49
21664;BME280;10993;52.510;13.456;2023-04-02T01:23:03;56572.94;;;-146.93;69.17
21664;BME280;10993;52.510;13.456;2023-04-02T01:28:11;56489.94;;;-146.93;69.56
21664;BME280;10993;52.510;13.456;2023-04-02T01:33:20;56617.47;;;-146.93;69.04
21664;BME280;10993;52.510;13.456;2023-04-02T01:38:24;56581.03;;;-146.93;68.91
21664;BME280;10993;52.510;13.456;2023-04-02T01:43:29;56587.13;;;-146.93;69.19
21664;BME280;10993;52.510;13.456;2023-04-02T01:48:33;56564.84;;;-146.93;68.45
21664;BME280;10993;52.510;13.456;2023-04-02T01:53:33;56589.13;;;-146.93;69.38
21664;BME280;10993;52.510;13.456;2023-04-02T01:58:34;56570.91;;;-146.93;68.81
21664;BME280;10993;52.510;13.456;2023-04-02T02:03:42;56585.09;;;-146.93;69.32
21664;BME280;10993;52.510;13.456;2023-04-02T02:08:46;56532.44;;;-146.93;69.41
21664;BME280;10993;52.510;13.456;2023-04-02T02:13:52;56568.88;;;-146.93;69.66
21664;BME280;10993;52.510;13.456;2023-04-02T02:18:57;56589.13;;;-146.93;68.98
21664;BME280;10993;52.510;13.456;2023-04-02T02:24:00;56601.28;;;-146.93;68.51
21664;BME280;10993;52.510;13.456;2023-04-02T02:29:02;56524.34;;;-146.93;68.00
21664;BME280;10993;52.510;13.456;2023-04-02T02:34:11;56475.75;;;-146.93;67.94
21664;BME280;10993;52.510;13.456;2023-04-02T02:39:20;56435.25;;;-146.93;67.91
21664;BME280;10993;52.510;13.456;2023-04-02T02:44:23;56496.00;;;-146.93;68.35
21664;BME280;10993;52.510;13.456;2023-04-02T02:49:27;56562.81;;;-146.93;66.95
21664;BME280;10993;52.510;13.456;2023-04-02T02:54:31;56556.75;;;-146.93;66.42
21664;BME280;10993;52.510;13.456;2023-04-02T02:59:32;56587.13;;;-146.93;66.28
21664;BME280;10993;52.510;13.456;2023-04-02T03:04:34;56593.19;;;-146.93;66.39
21664;BME280;10993;52.510;13.456;2023-04-02T03:09:37;56581.03;;;-146.93;66.80
21664;BME280;10993;52.510;13.456;2023-04-02T03:14:43;56585.09;;;-146.93;66.29
21664;BME280;10993;52.510;13.456;2023-04-02T03:19:51;56566.88;;;-146.93;66.11
21664;BME280;10993;52.510;13.456;2023-04-02T03:24:57;56562.81;;;-146.93;66.00
21664;BME280;10993;52.510;13.456;2023-04-02T03:30:20;56566.88;;;-146.93;65.78
21664;BME280;10993;52.510;13.456;2023-04-02T03:35:28;56568.88;;;-146.93;65.12
21664;BME280;10993;52.510;13.456;2023-04-02T03:40:34;56589.13;;;-146.93;65.66
21664;BME280;10993;52.510;13.456;2023-04-02T03:45:40;56554.72;;;-146.93;65.51
21664;BME280;10993;52.510;13.456;2023-04-02T03:50:46;56583.06;;;-146.93;65.10
21664;BME280;10993;52.510;13.456;2023-04-02T03:55:51;56568.88;;;-146.93;64.48
21664;BME280;10993;52.510;13.456;2023-04-02T04:00:56;56560.78;;;-146.93;65.76
21664;BME280;10993;52.510;13.456;2023-04-02T04:06:04;56570.91;;;-146.93;65.93
21664;BME280;10993;52.510;13.456;2023-04-02T04:11:08;56471.72;;;-146.93;65.88
21664;BME280;10993;52.510;13.456;2023-04-02T04:16:13;56439.31;;;-146.93;66.18
21664;BME280;10993;52.510;13.456;2023-04-02T04:21:19;56556.75;;;-146.93;66.59
21664;BME280;10993;52.510;13.456;2023-04-02T04:26:34;56491.94;;;-146.93;65.76
21664;BME280;10993;52.510;13.456;2023-04-02T04:31:42;56560.78;;;-146.93;66.96
21664;BME280;10993;52.510;13.456;2023-04-02T04:36:49;56589.13;;;-146.93;65.87
21664;BME280;10993;52.510;13.456;2023-04-02T04:41:56;56595.22;;;-146.93;66.82
21664;BME280;10993;52.510;13.456;2023-04-02T04:47:02;56544.59;;;-146.93;66.67
21664;BME280;10993;52.510;13.456;2023-04-02T04:52:10;56536.50;;;-146.93;66.03
21664;BME280;10993;52.510;13.456;2023-04-02T04:57:29;56552.69;;;-146.93;65.73
21664;BME280;10993;52.510;13.456;2023-04-02T05:02:33;57314.06;;;-146.93;66.48
21664;BME280;10993;52.510;13.456;2023-04-02T05:07:45;56581.03;;;-146.93;65.91
21664;BME280;10993;52.510;13.456;2023-04-02T05:12:51;56564.84;;;-146.93;65.82
21664;BME280;10993;52.510;13.456;2023-04-02T05:18:07;56548.66;;;-146.93;65.37
21664;BME280;10993;52.510;13.456;2023-04-02T05:23:14;56536.50;;;-146.93;65.18
21664;BME280;10993;52.510;13.456;2023-04-02T05:28:20;56562.81;;;-146.93;63.70
21664;BME280;10993;52.510;13.456;2023-04-02T05:33:24;56558.75;;;-146.93;63.07
21664;BME280;10993;52.510;13.456;2023-04-02T05:38:30;56526.38;;;-146.93;64.12
21664;BME280;10993;52.510;13.456;2023-04-02T05:43:33;56585.09;;;-146.93;63.02
21664;BME280;10993;52.510;13.456;2023-04-02T05:48:38;56574.97;;;-146.93;60.91
21664;BME280;10993;52.510;13.456;2023-04-02T05:53:46;56457.53;;;-146.93;59.87
21664;BME280;10993;52.510;13.456;2023-04-02T05:58:50;56544.59;;;-146.93;60.74
21664;BME280;10993;52.510;13.456;2023-04-02T06:03:56;56560.78;;;-146.93;61.75
21664;BME280;10993;52.510;13.456;2023-04-02T06:09:06;56560.78;;;-146.93;60.55
21664;BME280;10993;52.510;13.456;2023-04-02T06:14:11;56550.66;;;-146.93;59.88
21664;BME280;10993;52.510;13.456;2023-04-02T06:19:16;56532.44;;;-146.93;58.32
21664;BME280;10993;52.510;13.456;2023-04-02T06:24:22;56548.66;;;-146.93;56.40
21664;BME280;10993;52.510;13.456;2023-04-02T06:29:29;56457.53;;;-146.93;55.74
21664;BME280;10993;52.510;13.456;2023-04-02T06:34:30;57516.59;;;-146.93;55.53
21664;BME280;10993;52.510;13.456;2023-04-02T06:39:32;56572.94;;;-146.93;53.67
21664;BME280;10993;52.510;13.456;2023-04-02T06:44:34;56510.19;;;-146.93;52.10
21664;BME280;10993;52.510;13.456;2023-04-02T06:49:39;56560.78;;;-146.93;49.35
21664;BME280;10993;52.510;13.456;2023-04-02T06:54:43;56589.13;;;-146.93;43.98
21664;BME280;10993;52.510;13.456;2023-04-02T06:59:43;56544.59;;;-146.93;44.52
21664;BME280;10993;52.510;13.456;2023-04-02T07:04:44;56577.00;;;-146.93;42.20
21664;BME280;10993;52.510;13.456;2023-04-02T07:09:46;56577.00;;;-146.93;41.54
21664;BME280;10993;52.510;13.456;2023-04-02T07:14:47;56696.44;;;-146.93;37.17
21664;BME280;10993;52.510;13.456;2023-04-02T07:19:47;56552.69;;;-146.93;36.51
21664;BME280;10993;52.510;13.456;2023-04-02T07:24:50;56653.94;;;-146.93;36.01
21664;BME280;10993;52.510;13.456;2023-04-02T07:29:50;56572.94;;;-146.93;40.75
21664;BME280;10993;52.510;13.456;2023-04-02T07:34:50;56625.59;;;-146.93;41.83
21664;BME280;10993;52.510;13.456;2023-04-02T07:39:52;56518.28;;;-146.93;43.82
21664;BME280;10993;52.510;13.456;2023-04-02T07:44:52;57109.53;;;-146.93;40.72
21664;BME280;10993;52.510;13.456;2023-04-02T07:49:53;56540.53;;;-146.93;39.92
21664;BME280;10993;52.510;13.456;2023-04-02T07:54:55;56570.91;;;-146.93;41.51
21664;BME280;10993;52.510;13.456;2023-04-02T07:59:55;56577.00;;;-146.93;40.45
21664;BME280;10993;52.510;13.456;2023-04-02T08:04:56;56548.66;;;-146.93;43.40
21664;BME280;10993;52.510;13.456;2023-04-02T08:09:57;56548.66;;;-146.93;44.47
21664;BME280;10993;52.510;13.456;2023-04-02T08:14:58;56475.75;;;-146.93;44.45
21664;BME280;10993;52.510;13.456;2023-04-02T08:19:59;56540.53;;;-146.93;45.41
21664;BME280;10993;52.510;13.456;2023-04-02T08:25:01;56564.84;;;-146.93;42.85
21664;BME280;10993;52.510;13.456;2023-04-02T08:30:03;56558.75;;;-146.93;40.72
21664;BME280;10993;52.510;13.456;2023-04-02T08:35:04;56601.28;;;-146.93;39.10
21664;BME280;10993;52.510;13.456;2023-04-02T08:40:15;56548.66;;;-146.93;42.42
21664;BME280;10993;52.510;13.456;2023-04-02T08:45:19;56514.22;;;-146.93;44.02
21664;BME280;10993;52.510;13.456;2023-04-02T08:50:27;56552.69;;;-146.93;43.81
21664;BME280;10993;52.510;13.456;2023-04-02T08:55:35;56542.56;;;-146.93;44.00
21664;BME280;10993;52.510;13.456;2023-04-02T09:00:42;56528.41;;;-146.93;43.35
21664;BME280;10993;52.510;13.456;2023-04-02T09:05:45;56564.84;;;-146.93;43.20
21664;BME280;10993;52.510;13.456;2023-04-02T09:10:51;56530.41;;;-146.93;44.12
21664;BME280;10993;52.510;13.456;2023-04-02T09:15:55;56629.63;;;-146.93;39.72
21664;BME280;10993;52.510;13.456;2023-04-02T09:20:57;56560.78;;;-146.93;38.66
21664;BME280;10993;52.510;13.456;2023-04-02T09:26:15;56666.06;;;-146.93;35.77
21664;BME280;10993;52.510;13.456;2023-04-02T09:31:19;56747.06;;;-146.93;32.69
21664;BME280;10993;52.510;13.456;2023-04-02T09:36:36;56662.03;;;-146.93;34.23
21664;BME280;10993;52.510;13.456;2023-04-02T09:41:38;56751.13;;;-146.93;32.81
21664;BME280;10993;52.510;13.456;2023-04-02T09:46:46;56757.19;;;-146.93;32.54
21664;BME280;10993;52.510;13.456;2023-04-02T09:52:05;56795.66;;;-146.93;30.73
21664;BME280;10993;52.510;13.456;2023-04-02T09:57:17;56953.59;;;-146.93;29.53
21664;BME280;10993;52.510;13.456;2023-04-02T10:02:23;56864.50;;;-146.93;29.89
21664;BME280;10993;52.510;13.456;2023-04-02T10:07:32;56666.06;;;-146.93;33.12
21664;BME280;10993;52.510;13.456;2023-04-02T10:12:37;56607.34;;;-146.93;34.71
21664;BME280;10993;52.510;13.456;2023-04-02T10:17:40;56645.81;;;-146.93;33.75
21664;BME280;10993;52.510;13.456;2023-04-02T10:22:41;56583.06;;;-146.93;33.36
21664;BME280;10993;52.510;13.456;2023-04-02T10:27:48;56625.59;;;-146.93;36.39
21664;BME280;10993;52.510;13.456;2023-04-02T10:32:54;56589.13;;;-146.93;37.10
21664;BME280;10993;52.510;13.456;2023-04-02T10:43:41;56860.47;;;-146.93;35.94
21664;BME280;10993;52.510;13.456;2023-04-02T10:48:49;56621.53;;;-146.93;35.94
21664;BME280;10993;52.510;13.456;2023-04-02T10:53:57;56579.00;;;-146.93;36.01
21664;BME280;10993;52.510;13.456;2023-04-02T10:59:06;56581.03;;;-146.93;35.99
21664;BME280;10993;52.510;13.456;2023-04-02T11:04:16;56587.13;;;-146.93;36.52
21664;BME280;10993;52.510;13.456;2023-04-02T11:09:20;56601.28;;;-146.93;36.06
21664;BME280;10993;52.510;13.456;2023-04-02T11:14:26;56607.34;;;-146.93;37.04
21664;BME280;10993;52.510;13.456;2023-04-02T11:19:28;56579.00;;;-146.93;36.87
21664;BME280;10993;52.510;13.456;2023-04-02T11:24:37;56552.69;;;-146.93;37.54
21664;BME280;10993;52.510;13.456;2023-04-02T11:29:43;56544.59;;;-146.93;37.74
21664;BME280;10993;52.510;13.456;2023-04-02T11:40:55;56585.09;;;-146.93;38.19
21664;BME280;10993;52.510;13.456;2023-04-02T11:45:57;56633.69;;;-146.93;37.47
21664;BME280;10993;52.510;13.456;2023-04-02T11:50:59;56680.25;;;-146.93;34.06
21664;BME280;10993;52.510;13.456;2023-04-02T11:56:06;56570.91;;;-146.93;34.20
21664;BME280;10993;52.510;13.456;2023-04-02T12:12:25;56613.44;;;-146.93;35.73
21664;BME280;10993;52.510;13.456;2023-04-02T12:17:33;57008.28;;;-146.93;37.13
21664;BME280;10993;52.510;13.456;2023-04-02T12:22:34;56583.06;;;-146.93;36.76
21664;BME280;10993;52.510;13.456;2023-04-02T12:27:37;56591.16;;;-146.93;36.06
21664;BME280;10993;52.510;13.456;2023-04-02T12:32:39;56605.34;;;-146.93;34.56
21664;BME280;10993;52.510;13.456;2023-04-02T12:37:39;56678.22;;;-146.93;33.81
21664;BME280;10993;52.510;13.456;2023-04-02T12:42:40;56609.38;;;-146.93;34.35
21664;BME280;10993;52.510;13.456;2023-04-02T12:47:44;56621.53;;;-146.93;34.46
21664;BME280;10993;52.510;13.456;2023-04-02T12:52:46;56838.19;;;-146.93;34.26
21664;BME280;10993;52.510;13.456;2023-04-02T12:57:47;56506.13;;;-146.93;33.49
21664;BME280;10993;52.510;13.456;2023-04-02T13:02:51;56609.38;;;-146.93;34.63
21664;BME280;10993;52.510;13.456;2023-04-02T13:07:51;56560.78;;;-146.93;34.67
21664;BME280;10993;52.510;13.456;2023-04-02T13:12:54;56657.97;;;-146.93;33.69
21664;BME280;10993;52.510;13.456;2023-04-02T13:18:05;56532.44;;;-146.93;34.14
21664;BME280;10993;52.510;13.456;2023-04-02T13:23:23;56558.75;;;-146.93;35.58
21664;BME280;10993;52.510;13.456;2023-04-02T13:28:24;56591.16;;;-146.93;35.53
21664;BME280;10993;52.510;13.456;2023-04-02T13:33:26;56627.59;;;-146.93;34.52
21664;BME280;10993;52.510;13.456;2023-04-02T13:38:26;56647.84;;;-146.93;33.57
21664;BME280;10993;52.510;13.456;2023-04-02T13:43:27;56574.97;;;-146.93;34.96
21664;BME280;10993;52.510;13.456;2023-04-02T13:48:28;56621.53;;;-146.93;34.56
21664;BME280;10993;52.510;13.456;2023-04-02T13:53:31;56579.00;;;-146.93;35.66
21664;BME280;10993;52.510;13.456;2023-04-02T13:58:32;56566.88;;;-146.93;36.19
21664;BME280;10993;52.510;13.456;2023-04-02T14:03:34;56763.28;;;-146.93;35.51
21664;BME280;10993;52.510;13.456;2023-04-02T14:08:44;56564.84;;;-146.93;35.18
21664;BME280;10993;52.510;13.456;2023-04-02T14:14:04;56621.53;;;-146.93;35.06
21664;BME280;10993;52.510;13.456;2023-04-02T14:19:20;56585.09;;;-146.93;34.76
21664;BME280;10993;52.510;13.456;2023-04-02T14:24:29;56568.88;;;-146.93;36.06
21664;BME280;10993;52.510;13.456;2023-04-02T14:29:40;56556.75;;;-146.93;34.65
21664;BME280;10993;52.510;13.456;2023-04-02T14:34:50;56589.13;;;-146.93;34.47
21664;BME280;10993;52.510;13.456;2023-04-02T14:40:04;56457.53;;;-146.93;36.17
21664;BME280;10993;52.510;13.456;2023-04-02T14:45:13;56568.88;;;-146.93;37.22
21664;BME280;10993;52.510;13.456;2023-04-02T14:50:23;56548.66;;;-146.93;36.57
21664;BME280;10993;52.510;13.456;2023-04-02T14:55:31;56483.84;;;-146.93;36.31
21664;BME280;10993;52.510;13.456;2023-04-02T15:00:37;56572.94;;;-146.93;36.57
21664;BME280;10993;52.510;13.456;2023-04-02T15:05:42;56589.13;;;-146.93;36.48
21664;BME280;10993;52.510;13.456;2023-04-02T15:10:53;56564.84;;;-146.93;37.39
21664;BME280;10993;52.510;13.456;2023-04-02T15:15:57;56568.88;;;-146.93;36.76
21664;BME280;10993;52.510;13.456;2023-04-02T15:21:12;56520.28;;;-146.93;37.07
21664;BME280;10993;52.510;13.456;2023-04-02T15:26:20;56431.22;;;-146.93;37.57
21664;BME280;10993;52.510;13.456;2023-04-02T15:31:27;56536.50;;;-146.93;37.70
21664;BME280;10993;52.510;13.456;2023-04-02T15:36:52;56512.19;;;-146.93;38.39
21664;BME280;10993;52.510;13.456;2023-04-02T15:42:03;57168.25;;;-146.93;37.97
21664;BME280;10993;52.510;13.456;2023-04-02T15:47:10;56524.34;;;-146.93;37.48
21664;BME280;10993;52.510;13.456;2023-04-02T15:52:23;56544.59;;;-146.93;37.45
21664;BME280;10993;52.510;13.456;2023-04-02T15:57:37;56522.31;;;-146.93;37.55
21664;BME280;10993;52.510;13.456;2023-04-02T16:02:57;56546.63;;;-146.93;37.37
21664;BME280;10993;52.510;13.456;2023-04-02T16:08:17;56520.28;;;-146.93;36.77
21664;BME280;10993;52.510;13.456;2023-04-02T16:13:25;56402.88;;;-146.93;37.21
21664;BME280;10993;52.510;13.456;2023-04-02T16:18:36;56402.88;;;-146.93;38.71
21664;BME280;10993;52.510;13.456;2023-04-02T16:23:39;56475.75;;;-146.93;38.57
21664;BME280;10993;52.510;13.456;2023-04-02T16:28:44;56520.28;;;-146.93;38.59
21664;BME280;10993;52.510;13.456;2023-04-02T16:33:57;56512.19;;;-146.93;38.22
21664;BME280;10993;52.510;13.456;2023-04-02T16:39:11;56491.94;;;-146.93;38.52
21664;BME280;10993;52.510;13.456;2023-04-02T16:44:21;56439.31;;;-146.93;39.38
21664;BME280;10993;52.510;13.456;2023-04-02T16:49:32;56504.09;;;-146.93;39.16
21664;BME280;10993;52.510;13.456;2023-04-02T16:54:41;56477.78;;;-146.93;39.67
21664;BME280;10993;52.510;13.456;2023-04-02T16:59:54;56512.19;;;-146.93;40.12
21664;BME280;10993;52.510;13.456;2023-04-02T17:05:03;56498.03;;;-146.93;40.45
21664;BME280;10993;52.510;13.456;2023-04-02T17:10:20;56542.56;;;-146.93;40.51
21664;BME280;10993;52.510;13.456;2023-04-02T17:15:25;56516.25;;;-146.93;40.83
21664;BME280;10993;52.510;13.456;2023-04-02T17:20:26;56516.25;;;-146.93;41.53
21664;BME280;10993;52.510;13.456;2023-04-02T17:25:31;56540.53;;;-146.93;42.01
21664;BME280;10993;52.510;13.456;2023-04-02T17:30:36;56483.84;;;-146.93;42.54
21664;BME280;10993;52.510;13.456;2023-04-02T17:35:44;56787.56;;;-146.93;43.05
21664;BME280;10993;52.510;13.456;2023-04-02T17:40:52;56491.94;;;-146.93;43.61
21664;BME280;10993;52.510;13.456;2023-04-02T17:45:58;56510.19;;;-146.93;44.13
21664;BME280;10993;52.510;13.456;2023-04-02T17:51:10;56479.81;;;-146.93;44.48
21664;BME280;10993;52.510;13.456;2023-04-02T17:56:29;56528.41;;;-146.93;45.29
21664;BME280;10993;52.510;13.456;2023-04-02T18:01:41;56479.81;;;-146.93;46.32
21664;BME280;10993;52.510;13.456;2023-04-02T18:06:53;56510.19;;;-146.93;47.19
21664;BME280;10993;52.510;13.456;2023-04-02T18:12:06;56485.88;;;-146.93;47.97
21664;BME280;10993;52.510;13.456;2023-04-02T18:17:16;56540.53;;;-146.93;48.42
21664;BME280;10993;52.510;13.456;2023-04-02T18:22:25;56506.13;;;-146.93;48.99
21664;BME280;10993;52.510;13.456;2023-04-02T18:27:41;56524.34;;;-146.93;49.32
21664;BME280;10993;52.510;13.456;2023-04-02T18:38:20;56536.50;;;-146.93;51.00
21664;BME280;10993;52.510;13.456;2023-04-02T18:43:32;56500.06;;;-146.93;51.13
21664;BME280;10993;52.510;13.456;2023-04-02T18:48:38;56524.34;;;-146.93;51.72
21664;BME280;10993;52.510;13.456;2023-04-02T18:53:41;56473.72;;;-146.93;52.11
21664;BME280;10993;52.510;13.456;2023-04-02T18:58:50;56536.50;;;-146.93;52.91
21664;BME280;10993;52.510;13.456;2023-04-02T19:03:59;56485.88;;;-146.93;52.98
21664;BME280;10993;52.510;13.456;2023-04-02T19:09:03;56524.34;;;-146.93;53.98
21664;BME280;10993;52.510;13.456;2023-04-02T19:14:11;56516.25;;;-146.93;54.63
21664;BME280;10993;52.510;13.456;2023-04-02T19:19:16;56544.59;;;-146.93;54.95
21664;BME280;10993;52.510;13.456;2023-04-02T19:24:27;56528.41;;;-146.93;55.70
21664;BME280;10993;52.510;13.456;2023-04-02T19:29:41;56526.38;;;-146.93;55.54
21664;BME280;10993;52.510;13.456;2023-04-02T19:34:51;56538.53;;;-146.93;55.94
21664;BME280;10993;52.510;13.456;2023-04-02T19:40:17;56532.44;;;-146.93;56.57
21664;BME280;10993;52.510;13.456;2023-04-02T19:45:33;56386.66;;;-146.93;56.36
21664;BME280;10993;52.510;13.456;2023-04-02T19:50:34;56548.66;;;-146.93;55.91
21664;BME280;10993;52.510;13.456;2023-04-02T19:55:35;56506.13;;;-146.93;56.98
21664;BME280;10993;52.510;13.456;2023-04-02T20:00:36;56528.41;;;-146.93;56.30
21664;BME280;10993;52.510;13.456;2023-04-02T20:05:37;56510.19;;;-146.93;57.86
21664;BME280;10993;52.510;13.456;2023-04-02T20:10:37;56475.75;;;-146.93;56.67
21664;BME280;10993;52.510;13.456;2023-04-02T20:15:39;56540.53;;;-146.93;56.68
21664;BME280;10993;52.510;13.456;2023-04-02T20:20:40;56483.84;;;-146.93;57.00
21664;BME280;10993;52.510;13.456;2023-04-02T20:25:44;56459.56;;;-146.93;57.43
21664;BME280;10993;52.510;13.456;2023-04-02T20:30:47;56558.75;;;-146.93;57.16
21664;BME280;10993;52.510;13.456;2023-04-02T20:35:50;56556.75;;;-146.93;56.57
21664;BME280;10993;52.510;13.456;2023-04-02T20:40:52;56560.78;;;-146.93;56.63
21664;BME280;10993;52.510;13.456;2023-04-02T20:45:55;56496.00;;;-146.93;56.04
21664;BME280;10993;52.510;13.456;2023-04-02T20:50:56;56508.16;;;-146.93;55.88
21664;BME280;10993;52.510;13.456;2023-04-02T20:56:01;56568.88;;;-146.93;56.21
21664;BME280;10993;52.510;13.456;2023-04-02T21:01:10;56542.56;;;-146.93;56.91
21664;BME280;10993;52.510;13.456;2023-04-02T21:06:12;56568.88;;;-146.93;56.50
21664;BME280;10993;52.510;13.456;2023-04-02T21:11:14;56548.66;;;-146.93;56.60
21664;BME280;10993;52.510;13.456;2023-04-02T21:16:18;56536.50;;;-146.93;57.14
21664;BME280;10993;52.510;13.456;2023-04-02T21:21:19;56532.44;;;-146.93;56.98
21664;BME280;10993;52.510;13.456;2023-04-02T21:26:20;56556.75;;;-146.93;57.73
21664;BME280;10993;52.510;13.456;2023-04-02T21:31:24;56455.50;;;-146.93;57.74
21664;BME280;10993;52.510;13.456;2023-04-02T21:36:26;56552.69;;;-146.93;57.70
21664;BME280;10993;52.510;13.456;2023-04-02T21:41:29;56819.97;;;-146.93;58.15
21664;BME280;10993;52.510;13.456;2023-04-02T21:46:33;56504.09;;;-146.93;58.02
21664;BME280;10993;52.510;13.456;2023-04-02T21:51:35;56603.31;;;-146.93;58.36
21664;BME280;10993;52.510;13.456;2023-04-02T21:56:38;56570.91;;;-146.93;58.50
21664;BME280;10993;52.510;13.456;2023-04-02T22:01:42;56562.81;;;-146.93;59.26
21664;BME280;10993;52.510;13.456;2023-04-02T22:06:43;56544.59;;;-146.93;59.47
21664;BME280;10993;52.510;13.456;2023-04-02T22:11:45;56568.88;;;-146.93;59.46
21664;BME280;10993;52.510;13.456;2023-04-02T22:16:47;56540.53;;;-146.93;59.76
21664;BME280;10993;52.510;13.456;2023-04-02T22:21:47;56574.97;;;-146.93;59.90
21664;BME280;10993;52.510;13.456;2023-04-02T22:26:48;56589.13;;;-146.93;62.59
21664;BME280;10993;52.510;13.456;2023-04-02T22:31:50;56562.81;;;-146.93;60.54
21664;BME280;10993;52.510;13.456;2023-04-02T22:36:50;56562.81;;;-146.93;60.27
21664;BME280;10993;52.510;13.456;2023-04-02T22:41:52;56585.09;;;-146.93;60.04
21664;BME280;10993;52.510;13.456;2023-04-02T22:46:53;56548.66;;;-146.93;60.71
21664;BME280;10993;52.510;13.456;2023-04-02T22:51:54;56577.00;;;-146.93;60.33
21664;BME280;10993;52.510;13.456;2023-04-02T22:56:54;56572.94;;;-146.93;60.63
21664;BME280;10993;52.510;13.456;2023-04-02T23:01:56;56585.09;;;-146.93;60.57
21664;BME280;10993;52.510;13.456;2023-04-02T23:06:56;56585.09;;;-146.93;60.57
21664;BME280;10993;52.510;13.456;2023-04-02T23:11:56;56581.03;;;-146.93;60.66
21664;BME280;10993;52.510;13.456;2023-04-02T23:16:58;56556.75;;;-146.93;60.57
21664;BME280;10993;52.510;13.456;2023-04-02T23:21:58;56544.59;;;-146.93;60.17
21664;BME280;10993;52.510;13.456;2023-04-02T23:26:59;56568.88;;;-146.93;60.01
21664;BME280;10993;52.510;13.456;2023-04-02T23:32:00;56585.09;;;-146.93;59.78
21664;BME280;10993;52.510;13.456;2023-04-02T23:37:01;56577.00;;;-146.93;58.95
21664;BME280;10993;52.510;13.456;2023-04-02T23:42:01;56583.06;;;-146.93;59.75
21664;BME280;10993;52.510;13.456;2023-04-02T23:47:03;56568.88;;;-146.93;59.31
21664;BME280;10993;52.510;13.456;2023-04-02T23:52:04;56631.66;;;-146.93;59.59
21664;BME280;10993;52.510;13.456;2023-04-02T23:57:04;56601.28;;;-146.93;59.27
